Aviation Digital Data Service (ADDS)

Output produced by METARs form (1502 UTC 29 May 2017)
found at http://www.aviationweather.gov/adds/metars/
 
TAF HSOB 291100Z 2912/3018 23012G22KT 9999 SCT040 SCT140 
     PROB30 
     TEMPO 2914/2917 6000 RA BKN140
       
TAF HSSJ 291000Z 2912/3018 18005G15KT 9999 SCT040 BKN140 
     PROB30 
     TEMPO 2912/2918 6000 TSRA FEW045CB 
     TEMPO 2918/9824 VRB03KT 9999 SCT040 BKN140
       
TAF HSKA 291100Z 2912/3018 VRB03KT CAVOK 
     PROB30 
     TEMPO 2912/2915 9999 SCT040 SCT140
       
HSSS 291500Z 20007KT CAVOK 41/12 Q1007 NOSIG
HSSS 291100Z 2912/3018 21014G24KT 8000 
     TEMPO 2912/2915 6000
       
HSPN 291400Z 36016KT CAVOK 37/15 Q1006
TAF HSPN 291100Z 2912/3018 36018G28KT 9999 SCT030 SCT130 
     BECMG 2922/2924 32008KT 
     TEMPO 3003/3006 6000